Airports

 

 

Airport Name Latest METAR Visual Conditions
Atlanta International (ATL) KATL 161425Z 28007KT 7SM -DZ OVC013 09/07 A3011 RMK AO2 DZB08 P0000 T00890067 $ MVFR
Asheville Regional (AVL) KAVL 161354Z 35012KT 10SM SCT030 08/03 A3002 RMK AO2 SLP165 T00780033 VFR
Birmingham International (BHM) KBHM 161421Z 27007KT 10SM BKN010 OVC013 09/08 A3021 RMK AO2 CIG 008V012 T00940078 MVFR
Charlotte International (CLT) KCLT 161352Z 26004KT 10SM FEW075 FEW250 08/06 A2998 RMK AO2 SLP154 T00780061 VFR
Greenville Downtown (GMU) KGMU 161353Z 26003KT 10SM CLR 07/06 A3002 RMK AO2 SLP168 T00670061 VFR
Greenville-Spartanburg International (GSP) KGSP 161353Z 22005KT 10SM CLR 06/05 A3002 RMK AO2 SLP166 T00560050 VFR
Raleigh-Durham International (RDU) KRDU 161351Z 25009KT 10SM SCT007 08/07 A2992 RMK AO2 SLP131 T00830072 $ VFR
Knoxville Regional (TYS) KTYS 161424Z 22008KT 5SM BR OVC010 07/07 A3010 RMK AO2 CIG 006V014 T00720067 $ MVFR